createdAt,value
2022-11-21T00:02:19.092Z,9.83
2022-11-21T00:04:47.626Z,9.76
2022-11-21T00:07:17.850Z,9.91
2022-11-21T00:09:46.412Z,10.17
2022-11-21T00:12:16.738Z,10.29
2022-11-21T00:14:45.293Z,10.32
2022-11-21T00:17:13.914Z,10.41
2022-11-21T00:19:42.551Z,10.37
2022-11-21T00:22:11.098Z,10.42
2022-11-21T00:24:39.926Z,10.43
2022-11-21T00:27:08.512Z,10.26
2022-11-21T00:29:37.203Z,9.99
2022-11-21T00:32:06.022Z,10.00
2022-11-21T00:34:34.598Z,10.10
2022-11-21T00:37:03.169Z,10.24
2022-11-21T00:39:31.760Z,10.12
2022-11-21T00:42:01.826Z,10.01
2022-11-21T00:44:30.892Z,10.09
2022-11-21T00:46:59.491Z,9.99
2022-11-21T00:49:28.247Z,9.96
2022-11-21T00:51:56.899Z,10.00
2022-11-21T00:54:25.844Z,10.23
2022-11-21T00:56:55.093Z,10.28
2022-11-21T00:59:23.841Z,10.28
2022-11-21T01:01:52.550Z,10.24
2022-11-21T01:04:21.165Z,10.26
2022-11-21T01:06:49.775Z,10.20
2022-11-21T01:09:18.493Z,10.11
2022-11-21T01:11:46.970Z,10.15
2022-11-21T01:14:15.600Z,9.70
2022-11-21T01:16:45.665Z,9.80
2022-11-21T01:19:14.284Z,9.66
2022-11-21T01:21:42.951Z,9.62
2022-11-21T01:24:13.346Z,9.69
2022-11-21T01:26:41.866Z,9.67
2022-11-21T01:29:10.550Z,9.89
2022-11-21T01:31:39.081Z,9.97
2022-11-21T01:34:07.701Z,9.95
2022-11-21T01:36:38.593Z,9.87
2022-11-21T01:39:08.127Z,9.81
2022-11-21T01:41:39.689Z,9.82
2022-11-21T01:44:16.948Z,9.83
2022-11-21T01:50:18.631Z,10.01
2022-11-21T01:52:47.449Z,10.19
2022-11-21T01:55:18.850Z,10.20
2022-11-21T01:57:57.251Z,10.29
2022-11-21T02:00:29.032Z,10.29
2022-11-21T02:03:00.914Z,10.21
2022-11-21T02:05:39.703Z,10.08
2022-11-21T02:08:11.468Z,10.15
2022-11-21T02:10:42.984Z,10.19
2022-11-21T02:13:15.446Z,10.15
2022-11-21T02:19:15.618Z,10.41
2022-11-21T02:22:08.027Z,10.34
2022-11-21T02:31:29.269Z,10.57
2022-11-21T02:33:57.830Z,10.63
2022-11-21T02:36:32.121Z,10.60
2022-11-21T02:39:01.362Z,10.49
2022-11-21T02:41:32.010Z,10.44
2022-11-21T02:44:09.959Z,10.13
2022-11-21T02:46:43.187Z,9.90
2022-11-21T02:49:13.637Z,10.01
2022-11-21T02:51:42.586Z,10.13
2022-11-21T02:54:11.195Z,10.27
2022-11-21T02:56:39.779Z,10.28
2022-11-21T02:59:08.394Z,10.40
2022-11-21T03:01:37.051Z,10.41
2022-11-21T03:04:23.372Z,10.48
2022-11-21T03:06:54.078Z,10.38
2022-11-21T03:09:28.857Z,10.33
2022-11-21T03:12:03.753Z,10.50
2022-11-21T03:14:34.121Z,10.65
2022-11-21T03:17:04.813Z,10.75
2022-11-21T03:19:33.496Z,10.81
2022-11-21T03:22:05.675Z,10.68
2022-11-21T03:24:34.307Z,10.56
2022-11-21T03:27:02.832Z,10.81
2022-11-21T03:29:31.743Z,10.77
2022-11-21T03:32:00.629Z,10.83
2022-11-21T03:34:29.869Z,10.94
2022-11-21T03:37:00.513Z,10.90
2022-11-21T03:39:30.598Z,10.85
2022-11-21T03:42:02.708Z,10.60
2022-11-21T03:44:31.598Z,10.88
2022-11-21T03:47:00.174Z,10.82
2022-11-21T03:49:28.833Z,10.64
2022-11-21T03:51:57.428Z,10.51
2022-11-21T03:54:26.478Z,10.64
2022-11-21T03:56:55.818Z,10.68
2022-11-21T03:59:24.434Z,10.58
2022-11-21T04:01:53.067Z,10.67
2022-11-21T04:04:21.589Z,10.77
2022-11-21T04:06:50.232Z,10.73
2022-11-21T04:09:18.853Z,10.66
2022-11-21T04:11:47.358Z,10.65
2022-11-21T04:14:16.199Z,10.56
2022-11-21T04:16:45.516Z,10.66
2022-11-21T04:19:14.053Z,10.68
2022-11-21T04:21:42.569Z,10.61
2022-11-21T04:24:11.528Z,10.52
2022-11-21T04:26:41.358Z,10.55
2022-11-21T04:29:10.127Z,10.54
2022-11-21T04:31:38.629Z,10.71
2022-11-21T04:34:07.191Z,10.84
2022-11-21T04:36:36.122Z,10.72
2022-11-21T04:39:05.232Z,10.92
2022-11-21T04:41:35.499Z,10.78
2022-11-21T04:44:04.177Z,10.89
2022-11-21T04:46:32.710Z,10.97
2022-11-21T04:49:02.845Z,10.89
2022-11-21T04:51:34.053Z,10.87
2022-11-21T04:54:02.541Z,10.83
2022-11-21T04:56:31.233Z,10.54
2022-11-21T04:58:59.861Z,10.48
2022-11-21T05:01:28.396Z,10.15
2022-11-21T05:03:56.944Z,10.03
2022-11-21T05:06:28.382Z,10.00
2022-11-21T05:08:56.941Z,10.00
2022-11-21T05:11:44.896Z,9.91
2022-11-21T05:14:14.496Z,9.94
2022-11-21T05:16:43.922Z,9.87
2022-11-21T05:19:12.478Z,9.79
2022-11-21T05:21:41.161Z,9.72
2022-11-21T05:24:09.883Z,9.55
2022-11-21T05:26:38.457Z,9.53
2022-11-21T05:29:07.336Z,9.47
2022-11-21T05:31:35.865Z,9.19
2022-11-21T05:34:04.468Z,9.28
2022-11-21T05:36:33.083Z,9.33
2022-11-21T05:39:01.673Z,9.21
2022-11-21T05:41:30.327Z,9.18
2022-11-21T05:44:00.506Z,9.01
2022-11-21T05:46:29.023Z,8.98
2022-11-21T05:48:57.605Z,8.66
2022-11-21T05:51:26.462Z,8.46
2022-11-21T05:53:55.088Z,8.42
2022-11-21T05:56:23.866Z,8.33
2022-11-21T05:58:53.077Z,8.14
2022-11-21T06:01:23.298Z,8.02
2022-11-21T06:03:51.854Z,8.03
2022-11-21T06:06:24.715Z,7.89
2022-11-21T06:08:50.726Z,7.74
2022-11-21T06:11:19.379Z,7.73
2022-11-21T06:13:47.888Z,7.65
2022-11-21T06:16:20.123Z,7.49
2022-11-21T06:18:53.884Z,7.55
2022-11-21T06:21:23.225Z,7.42
2022-11-21T06:23:57.177Z,7.32
2022-11-21T06:26:30.390Z,7.21
2022-11-21T06:28:59.089Z,7.09
2022-11-21T06:31:30.303Z,6.94
2022-11-21T06:34:00.546Z,6.80
2022-11-21T06:36:29.200Z,6.68
2022-11-21T06:38:58.163Z,6.63
2022-11-21T06:41:30.094Z,6.71
2022-11-21T06:44:03.806Z,6.53
2022-11-21T06:46:33.921Z,6.36
2022-11-21T06:49:02.654Z,5.85
2022-11-21T06:51:31.351Z,6.23
2022-11-21T06:54:00.440Z,6.10
2022-11-21T06:56:32.058Z,5.94
2022-11-21T06:59:01.042Z,5.92
2022-11-21T07:01:30.129Z,5.82
2022-11-21T07:03:58.810Z,5.74
2022-11-21T07:06:27.448Z,5.80
2022-11-21T07:09:25.279Z,5.61
2022-11-21T07:11:26.684Z,5.53
2022-11-21T07:13:56.698Z,5.40
2022-11-21T07:16:29.138Z,5.41
2022-11-21T07:18:57.777Z,5.37
2022-11-21T07:21:26.646Z,5.19
2022-11-21T07:23:55.154Z,5.03
2022-11-21T07:26:26.755Z,4.95
2022-11-21T07:28:55.540Z,4.86
2022-11-21T07:31:26.464Z,4.91
2022-11-21T07:33:55.052Z,4.91
2022-11-21T07:36:23.666Z,5.03
2022-11-21T07:38:52.218Z,4.76
2022-11-21T07:41:20.805Z,4.79
2022-11-21T07:43:49.388Z,4.85
2022-11-21T07:46:17.938Z,4.81
2022-11-21T07:48:46.524Z,4.82
2022-11-21T07:51:15.129Z,4.90
2022-11-21T07:53:43.751Z,4.92
2022-11-21T07:56:12.287Z,4.92
2022-11-21T07:58:40.876Z,4.82
2022-11-21T08:01:09.565Z,4.99
2022-11-21T08:03:38.103Z,4.94
2022-11-21T08:06:06.828Z,5.02
2022-11-21T08:08:35.380Z,4.94
2022-11-21T08:11:06.652Z,4.96
2022-11-21T08:13:36.172Z,5.18
2022-11-21T08:16:06.063Z,5.20
2022-11-21T08:18:34.634Z,5.12
2022-11-21T08:21:04.500Z,5.02
2022-11-21T08:23:33.610Z,5.04
2022-11-21T08:26:02.548Z,5.28
2022-11-21T08:28:31.132Z,5.16
2022-11-21T08:30:59.786Z,4.84
2022-11-21T08:33:28.583Z,4.88
2022-11-21T08:35:57.155Z,4.87
2022-11-21T08:38:25.919Z,4.92
2022-11-21T08:41:17.771Z,5.02
2022-11-21T08:43:45.690Z,5.20
2022-11-21T08:46:14.277Z,5.23
2022-11-21T08:48:42.858Z,5.15
2022-11-21T08:51:11.530Z,5.43
2022-11-21T08:53:40.012Z,5.23
2022-11-21T08:56:08.810Z,5.46
2022-11-21T08:58:37.312Z,5.48
2022-11-21T09:01:05.959Z,5.56
2022-11-21T09:03:35.298Z,5.67
2022-11-21T09:06:03.883Z,5.82
2022-11-21T09:08:32.877Z,5.85
2022-11-21T09:11:06.569Z,5.96
2022-11-21T09:13:37.825Z,5.94
2022-11-21T09:16:24.301Z,6.12
2022-11-21T09:18:55.564Z,6.15
2022-11-21T09:21:24.244Z,5.83
2022-11-21T09:23:52.851Z,5.60
2022-11-21T09:26:21.475Z,5.61
2022-11-21T09:28:50.033Z,5.72
2022-11-21T09:31:18.615Z,5.54
2022-11-21T09:33:49.708Z,5.43
2022-11-21T09:36:17.602Z,5.36
2022-11-21T09:38:46.219Z,5.47
2022-11-21T09:41:52.705Z,5.43
2022-11-21T09:44:42.596Z,5.39
2022-11-21T09:47:23.450Z,5.20
2022-11-21T09:50:16.569Z,5.40
2022-11-21T09:53:08.882Z,5.48
2022-11-21T09:55:52.270Z,5.58
2022-11-21T09:58:30.146Z,5.76
2022-11-21T10:00:59.238Z,5.63
2022-11-21T10:03:30.898Z,5.17
2022-11-21T10:06:14.084Z,5.51
2022-11-21T10:08:54.415Z,5.24
2022-11-21T10:11:25.965Z,4.94
2022-11-21T10:14:09.843Z,4.63
2022-11-21T10:16:44.995Z,4.56
2022-11-21T10:19:25.776Z,4.49
2022-11-21T10:22:09.208Z,4.56
2022-11-21T10:24:58.684Z,4.51
2022-11-21T10:27:39.454Z,4.66
2022-11-21T10:30:18.516Z,4.64
2022-11-21T10:32:56.661Z,4.74
2022-11-21T10:35:47.877Z,4.93
2022-11-21T10:38:25.290Z,5.09
2022-11-21T10:41:05.660Z,5.48
2022-11-21T10:44:14.917Z,5.12
2022-11-21T10:46:57.809Z,5.26
2022-11-21T10:49:29.397Z,5.20
2022-11-21T10:52:04.193Z,5.37
2022-11-21T10:54:36.459Z,5.28
2022-11-21T10:57:17.011Z,4.97
2022-11-21T11:00:03.663Z,4.82
2022-11-21T11:02:32.465Z,4.84
2022-11-21T11:05:21.919Z,4.70
2022-11-21T11:08:06.442Z,4.80
2022-11-21T11:10:38.482Z,4.72
2022-11-21T11:13:50.314Z,4.83
2022-11-21T11:16:15.080Z,4.83
2022-11-21T11:18:58.539Z,5.05
2022-11-21T11:21:30.366Z,5.33
2022-11-21T11:24:16.480Z,5.14
2022-11-21T11:26:54.241Z,5.15
2022-11-21T11:29:32.572Z,5.37
2022-11-21T11:32:07.079Z,5.41
2022-11-21T11:34:40.988Z,5.31
2022-11-21T11:37:15.437Z,5.58
2022-11-21T11:39:58.775Z,5.37
2022-11-21T11:43:20.045Z,5.52
2022-11-21T11:46:35.570Z,5.73
2022-11-21T11:49:22.645Z,5.95
2022-11-21T11:51:43.446Z,5.67
2022-11-21T11:54:24.139Z,5.57
2022-11-21T11:56:53.234Z,5.38
2022-11-21T11:59:36.730Z,5.17
2022-11-21T12:02:20.280Z,5.24
2022-11-21T12:04:51.878Z,5.29
2022-11-21T12:10:15.255Z,5.86
2022-11-21T12:12:53.044Z,5.78
2022-11-21T12:15:42.220Z,5.58
2022-11-21T12:18:21.249Z,5.52
2022-11-21T12:21:07.820Z,5.43
2022-11-21T12:23:54.573Z,5.19
2022-11-21T12:26:53.326Z,5.13
2022-11-21T12:29:42.978Z,5.09
2022-11-21T12:32:32.442Z,5.14
2022-11-21T12:35:20.812Z,5.15
2022-11-21T12:38:14.879Z,5.25
2022-11-21T12:40:47.009Z,5.13
2022-11-21T12:43:43.053Z,5.42
2022-11-21T12:46:22.851Z,5.35
2022-11-21T12:49:50.384Z,5.30
2022-11-21T12:52:35.062Z,5.19
2022-11-21T12:55:35.345Z,5.35
2022-11-21T12:58:04.693Z,5.55
2022-11-21T13:00:54.314Z,5.33
2022-11-21T13:03:59.582Z,5.27
2022-11-21T13:06:36.981Z,5.17
2022-11-21T13:09:08.777Z,5.03
2022-11-21T13:12:01.424Z,5.02
2022-11-21T13:14:45.285Z,5.04
2022-11-21T13:17:26.108Z,5.03
2022-11-21T13:19:57.856Z,5.02
2022-11-21T13:22:47.710Z,5.13
2022-11-21T13:25:38.579Z,5.00
2022-11-21T13:28:20.862Z,5.04
2022-11-21T13:30:50.848Z,5.07
2022-11-21T13:33:38.753Z,5.03
2022-11-21T13:36:09.763Z,5.08
2022-11-21T13:38:56.386Z,5.15
2022-11-21T13:41:57.696Z,5.09
2022-11-21T13:44:38.462Z,5.09
2022-11-21T13:47:27.546Z,5.01
2022-11-21T13:50:20.261Z,5.06
2022-11-21T13:53:06.303Z,5.08
2022-11-21T13:55:47.211Z,5.19
2022-11-21T13:58:53.671Z,5.01
2022-11-21T14:01:30.995Z,5.03
2022-11-21T14:04:22.211Z,5.14
2022-11-21T14:06:50.998Z,5.05
2022-11-21T14:09:31.764Z,4.97
2022-11-21T14:12:11.587Z,4.98
2022-11-21T14:14:43.148Z,4.87
2022-11-21T14:17:20.302Z,4.81
2022-11-21T14:19:49.698Z,4.78
2022-11-21T14:22:24.313Z,4.79
2022-11-21T14:24:56.483Z,4.72
2022-11-21T14:27:33.472Z,4.77
2022-11-21T14:30:02.842Z,4.88
2022-11-21T14:32:32.374Z,4.92
2022-11-21T14:35:21.715Z,4.99
2022-11-21T14:37:50.933Z,5.04
2022-11-21T14:40:25.028Z,5.16
2022-11-21T14:42:53.645Z,4.99
2022-11-21T14:45:25.200Z,5.16
2022-11-21T14:47:55.031Z,5.17
2022-11-21T14:50:31.643Z,5.11
2022-11-21T14:53:02.925Z,5.09
2022-11-21T14:55:33.717Z,5.03
2022-11-21T14:58:04.649Z,5.08
2022-11-21T15:00:59.944Z,5.03
2022-11-21T15:03:21.782Z,5.08
2022-11-21T15:06:08.584Z,5.00
2022-11-21T15:10:59.538Z,4.96
2022-11-21T15:13:51.549Z,4.95
2022-11-21T15:16:05.014Z,4.95
2022-11-21T15:18:34.256Z,4.99
2022-11-21T15:21:04.928Z,4.94
2022-11-21T15:23:35.438Z,4.92
2022-11-21T15:26:05.111Z,4.91
2022-11-21T15:28:34.566Z,4.98
2022-11-21T15:31:23.622Z,4.81
2022-11-21T15:36:36.009Z,4.57
2022-11-21T15:39:17.084Z,4.62
2022-11-21T15:41:46.062Z,4.47
2022-11-21T15:44:18.536Z,4.46
2022-11-21T15:46:47.377Z,4.43
2022-11-21T15:49:33.829Z,4.40
2022-11-21T15:52:06.625Z,4.44
2022-11-21T15:54:23.095Z,4.52
2022-11-21T15:56:51.845Z,4.50
2022-11-21T15:59:21.423Z,4.50
2022-11-21T16:01:49.923Z,4.48
2022-11-21T16:04:25.562Z,4.41
2022-11-21T16:06:52.611Z,4.47
2022-11-21T16:09:21.259Z,4.39
2022-11-21T16:11:51.430Z,4.29
2022-11-21T16:14:19.983Z,4.22
2022-11-21T16:16:49.315Z,4.27
2022-11-21T16:19:17.889Z,4.35
2022-11-21T16:21:46.446Z,4.35
2022-11-21T16:24:15.029Z,4.40
2022-11-21T16:26:43.623Z,4.32
2022-11-21T16:29:14.064Z,4.32
2022-11-21T16:31:42.645Z,4.11
2022-11-21T16:34:15.537Z,4.50
2022-11-21T16:36:47.138Z,4.44
2022-11-21T16:39:29.568Z,4.46
2022-11-21T16:41:49.326Z,4.41
2022-11-21T16:44:18.260Z,4.34
2022-11-21T16:46:49.322Z,4.38
2022-11-21T16:49:18.712Z,4.45
2022-11-21T16:51:48.572Z,4.28
2022-11-21T16:54:17.315Z,4.21
2022-11-21T16:56:47.062Z,4.43
2022-11-21T16:59:15.870Z,4.23
2022-11-21T17:01:44.492Z,4.07
2022-11-21T17:04:17.476Z,3.86
2022-11-21T17:06:44.687Z,3.96
2022-11-21T17:09:13.324Z,3.98
2022-11-21T17:11:43.590Z,3.94
2022-11-21T17:14:13.555Z,3.81
2022-11-21T17:16:42.202Z,3.89
2022-11-21T17:19:16.400Z,3.95
2022-11-21T17:21:46.481Z,4.05
2022-11-21T17:24:15.519Z,3.94
2022-11-21T17:26:44.145Z,3.76
2022-11-21T17:29:12.793Z,3.79
2022-11-21T17:31:42.228Z,3.81
2022-11-21T17:34:11.667Z,3.81
2022-11-21T17:36:40.380Z,3.81
2022-11-21T17:39:09.103Z,3.97
2022-11-21T17:41:42.694Z,3.92
2022-11-21T17:44:16.210Z,3.92
2022-11-21T17:46:44.811Z,3.95
2022-11-21T17:49:13.818Z,3.95
2022-11-21T17:51:44.298Z,3.98
2022-11-21T17:54:12.956Z,4.04
2022-11-21T17:56:45.964Z,4.11
2022-11-21T17:59:13.718Z,4.09
2022-11-21T18:01:42.811Z,4.01
2022-11-21T18:04:15.064Z,4.05
2022-11-21T18:06:41.984Z,3.98
2022-11-21T18:09:12.724Z,3.87
2022-11-21T18:11:41.853Z,3.77
2022-11-21T18:14:12.835Z,3.75
2022-11-21T18:16:46.241Z,3.73
2022-11-21T18:19:15.731Z,3.73
2022-11-21T18:21:44.425Z,3.76
2022-11-21T18:24:13.250Z,3.48
2022-11-21T18:26:42.748Z,3.54
2022-11-21T18:29:35.195Z,3.70
2022-11-21T18:31:43.155Z,3.67
2022-11-21T18:34:12.559Z,3.59
2022-11-21T18:36:47.728Z,3.52
2022-11-21T18:39:19.439Z,3.48
2022-11-21T18:41:54.091Z,3.45
2022-11-21T18:44:23.029Z,3.55
2022-11-21T18:46:53.084Z,3.58
2022-11-21T18:49:21.705Z,3.69
2022-11-21T18:51:50.419Z,3.65
2022-11-21T18:54:24.768Z,3.65
2022-11-21T20:20:01.389Z,4.04
2022-11-21T20:22:30.047Z,4.01
2022-11-21T20:24:58.654Z,3.92
2022-11-21T20:27:27.184Z,3.92
2022-11-21T20:29:55.735Z,3.89
2022-11-21T20:32:28.700Z,3.92
2022-11-21T20:34:57.422Z,3.94
2022-11-21T20:37:26.978Z,3.96
2022-11-21T20:39:59.508Z,3.96
2022-11-21T20:42:28.213Z,3.90
2022-11-21T20:45:54.316Z,3.83
2022-11-21T20:47:27.049Z,3.87
2022-11-21T20:49:55.686Z,3.87
2022-11-21T20:53:49.677Z,3.93
2022-11-21T20:54:55.833Z,3.75
2022-11-21T20:57:25.608Z,3.75
2022-11-21T20:59:54.344Z,3.73
2022-11-21T21:02:25.596Z,3.76
2022-11-21T21:04:54.181Z,3.79
2022-11-21T21:07:24.830Z,3.85
2022-11-21T21:09:53.706Z,3.85
2022-11-21T21:12:26.906Z,3.81
2022-11-21T21:14:55.750Z,3.84
2022-11-21T21:17:24.658Z,3.90
2022-11-21T21:19:53.538Z,3.97
2022-11-21T21:22:22.210Z,4.00
2022-11-21T21:24:50.738Z,3.98
2022-11-21T21:27:22.750Z,4.02
2022-11-21T21:29:51.477Z,3.99
2022-11-21T21:32:20.257Z,3.97
2022-11-21T21:34:49.018Z,4.08
2022-11-21T21:37:19.569Z,3.94
2022-11-21T21:39:48.596Z,3.94
2022-11-21T21:42:17.270Z,3.93
2022-11-21T21:44:47.795Z,3.85
2022-11-21T21:47:28.608Z,3.76
2022-11-21T21:50:23.847Z,3.69
2022-11-21T21:52:47.828Z,3.59
2022-11-21T21:55:16.491Z,3.53
2022-11-21T21:57:52.158Z,3.63
2022-11-21T22:00:16.986Z,3.60
2022-11-21T22:02:47.128Z,3.60
2022-11-21T22:05:15.790Z,3.63
2022-11-21T22:07:44.344Z,3.75
2022-11-21T22:10:13.013Z,3.83
2022-11-21T22:12:44.228Z,3.87
2022-11-21T22:15:11.993Z,3.85
2022-11-21T22:17:40.583Z,3.92
2022-11-21T22:20:09.827Z,3.97
2022-11-21T22:22:38.480Z,4.00
2022-11-21T22:25:07.744Z,4.04
2022-11-21T22:27:36.361Z,4.04
2022-11-21T22:30:05.094Z,4.04
2022-11-21T22:32:33.707Z,4.04
2022-11-21T22:35:02.464Z,3.99
2022-11-21T22:37:31.038Z,3.91
2022-11-21T22:39:59.770Z,3.91
2022-11-21T22:42:28.325Z,3.81
2022-11-21T22:44:57.112Z,3.70
2022-11-21T22:47:25.663Z,3.63
2022-11-21T22:49:54.158Z,3.52
2022-11-21T22:52:22.894Z,3.44
2022-11-21T22:54:52.247Z,3.44
2022-11-21T22:57:20.811Z,3.44
2022-11-21T22:59:49.639Z,3.48
2022-11-21T23:02:18.336Z,3.47
2022-11-21T23:04:46.903Z,3.46
2022-11-21T23:07:16.867Z,3.45
2022-11-21T23:09:45.590Z,3.42
2022-11-21T23:12:14.253Z,3.50
2022-11-21T23:14:44.430Z,3.51
2022-11-21T23:17:13.105Z,3.56
2022-11-21T23:19:41.684Z,3.62
2022-11-21T23:22:10.500Z,3.66
2022-11-21T23:24:39.189Z,3.72
2022-11-21T23:27:08.860Z,3.76
2022-11-21T23:29:37.613Z,3.76
2022-11-21T23:32:06.490Z,3.82
2022-11-21T23:34:35.097Z,3.87
2022-11-21T23:37:03.787Z,3.96
2022-11-21T23:39:32.444Z,3.96
2022-11-21T23:42:01.081Z,3.80
2022-11-21T23:44:29.737Z,3.80
2022-11-21T23:46:58.334Z,3.74
2022-11-21T23:49:27.288Z,3.70
2022-11-21T23:51:56.251Z,3.62
2022-11-21T23:54:24.760Z,3.61
2022-11-21T23:56:53.548Z,3.63
2022-11-21T23:59:22.264Z,3.56
